createdAt,value
2019-05-29T18:51:06.067Z,22.50
2019-05-29T18:56:03.437Z,257.25
2019-05-29T18:58:32.656Z,271.50
2019-05-29T19:01:01.896Z,289.20
2019-05-29T19:03:32.616Z,315.00
2019-05-29T19:06:01.983Z,307.25
2019-05-29T19:08:31.915Z,301.00
2019-05-29T19:11:01.202Z,303.00
2019-05-29T19:13:30.444Z,294.00
2019-05-29T19:15:59.660Z,302.50
2019-05-29T19:18:30.134Z,295.50
2019-05-29T19:20:59.357Z,286.50
2019-05-29T19:23:28.809Z,314.00
2019-05-29T19:25:57.920Z,30.75
2019-05-29T19:28:27.121Z,32.25
2019-05-29T19:30:56.234Z,26.50
2019-05-29T19:33:25.414Z,29.25
2019-05-29T19:35:54.631Z,31.00
2019-05-29T19:38:23.838Z,31.25
2019-05-29T19:40:53.061Z,31.25
2019-05-29T19:43:22.584Z,31.25
2019-05-29T19:45:51.764Z,33.25
2019-05-29T19:48:20.895Z,35.25
2019-05-29T19:50:50.025Z,32.50
2019-05-29T19:53:19.220Z,32.25
2019-05-29T19:55:48.443Z,33.75
2019-05-29T19:58:17.622Z,38.50
2019-05-29T20:00:46.719Z,38.25
2019-05-29T20:03:15.926Z,39.25
2019-05-29T20:05:45.125Z,41.75
2019-05-29T20:08:14.326Z,39.75
2019-05-29T20:10:43.442Z,38.75
2019-05-29T20:13:12.633Z,46.25
2019-05-29T20:15:41.821Z,41.50
2019-05-29T20:18:10.931Z,43.25
2019-05-29T20:20:40.053Z,43.00
2019-05-29T20:23:09.239Z,46.25
2019-05-29T20:25:39.073Z,50.00
2019-05-29T20:28:08.367Z,50.50
2019-05-29T20:30:38.715Z,45.50
2019-05-29T20:33:08.026Z,50.25
2019-05-29T20:35:37.161Z,50.75
2019-05-29T20:38:06.823Z,47.25
2019-05-29T20:40:37.209Z,50.50
2019-05-29T20:43:06.516Z,49.50
2019-05-29T20:45:35.644Z,49.50
2019-05-29T20:48:04.887Z,51.50
2019-05-29T20:50:34.899Z,49.75
2019-05-29T20:53:04.119Z,51.25
2019-05-29T20:55:33.522Z,49.25
2019-05-29T20:58:02.666Z,50.25
2019-05-29T21:00:31.957Z,47.00
2019-05-29T21:03:01.048Z,49.50
2019-05-29T21:05:30.253Z,46.25
2019-05-29T21:07:59.448Z,47.75
2019-05-29T21:10:28.633Z,46.25
2019-05-29T21:12:57.843Z,47.00
2019-05-29T21:15:27.027Z,47.75
2019-05-29T21:17:56.261Z,48.00
2019-05-29T21:20:29.019Z,44.50
2019-05-29T21:22:56.363Z,47.00
2019-05-29T21:25:25.574Z,37.00
2019-05-29T21:27:54.689Z,40.25
2019-05-29T21:30:26.721Z,45.25
2019-05-29T21:32:55.910Z,36.25
2019-05-29T21:35:25.118Z,37.50
2019-05-29T21:37:54.323Z,40.75
2019-05-29T21:40:23.520Z,41.00
2019-05-29T21:42:52.728Z,39.25
2019-05-29T21:45:21.909Z,38.00
2019-05-29T21:47:51.098Z,38.50
2019-05-29T21:50:20.276Z,37.25
2019-05-29T21:52:49.491Z,44.25
2019-05-29T21:55:20.209Z,43.25
2019-05-29T21:57:50.356Z,41.00
2019-05-29T22:00:42.574Z,41.75
2019-05-29T22:03:11.758Z,45.50
2019-05-29T22:05:41.069Z,40.00
2019-05-29T22:08:10.251Z,47.25
2019-05-29T22:10:39.534Z,50.75
2019-05-29T22:13:08.731Z,42.25
2019-05-29T22:15:37.908Z,49.25
2019-05-29T22:18:07.132Z,43.75
2019-05-29T22:20:36.321Z,40.50
2019-05-29T22:23:05.499Z,47.50
2019-05-29T22:25:34.872Z,49.50
2019-05-29T22:28:04.088Z,45.50
2019-05-29T22:30:33.302Z,47.75
2019-05-29T22:33:02.492Z,47.25
2019-05-29T22:35:31.666Z,46.25
2019-05-29T22:38:01.835Z,48.00
2019-05-29T22:40:31.115Z,44.50
2019-05-29T22:43:00.301Z,44.50
2019-05-29T22:45:29.476Z,41.25
2019-05-29T22:47:59.817Z,37.75
2019-05-29T22:50:29.071Z,41.00
2019-05-29T22:52:58.236Z,38.50
2019-05-29T22:55:27.449Z,39.50
2019-05-29T22:57:56.507Z,37.50
2019-05-29T23:00:25.687Z,33.75
2019-05-29T23:02:56.020Z,34.75
2019-05-29T23:05:25.379Z,38.75
2019-05-29T23:07:54.488Z,40.50
2019-05-29T23:10:23.684Z,43.00
2019-05-29T23:12:53.014Z,40.50
2019-05-29T23:15:23.380Z,39.50
2019-05-29T23:17:52.906Z,38.00
2019-05-29T23:20:22.131Z,37.25
2019-05-29T23:22:52.461Z,38.25
2019-05-29T23:25:21.718Z,41.50
2019-05-29T23:27:50.934Z,36.50
2019-05-29T23:30:20.133Z,36.00
2019-05-29T23:32:49.319Z,40.75
2019-05-29T23:35:18.492Z,37.50
2019-05-29T23:37:47.689Z,38.50
2019-05-29T23:40:16.815Z,37.75
2019-05-29T23:42:45.995Z,39.00
2019-05-29T23:45:15.276Z,34.50
2019-05-29T23:47:44.368Z,41.75
2019-05-29T23:50:13.769Z,41.00
2019-05-29T23:52:42.968Z,42.50
2019-05-29T23:55:13.469Z,39.25
2019-05-29T23:57:42.659Z,38.25
